createdAt,value
2019-01-03T00:01:36.094Z,154.00
2019-01-03T00:04:25.088Z,157.00
2019-01-03T00:07:24.058Z,152.25
2019-01-03T00:10:12.517Z,146.50
2019-01-03T00:13:01.273Z,155.25
2019-01-03T00:15:50.333Z,158.25
2019-01-03T00:18:50.036Z,154.00
2019-01-03T00:21:38.895Z,157.75
2019-01-03T00:24:25.607Z,158.00
2019-01-03T00:27:21.432Z,135.75
2019-01-03T00:30:10.384Z,140.25
2019-01-03T00:32:58.826Z,152.25
2019-01-03T00:35:58.141Z,154.50
2019-01-03T00:38:56.414Z,148.50
2019-01-03T00:41:46.093Z,145.00
2019-01-03T00:44:54.603Z,146.00
2019-01-03T00:47:47.892Z,155.25
2019-01-03T00:50:45.643Z,148.50
2019-01-03T00:53:31.729Z,149.25
2019-01-03T00:56:34.508Z,155.50
2019-01-03T00:59:39.756Z,151.00
2019-01-03T01:02:42.250Z,154.75
2019-01-03T01:05:30.676Z,145.75
2019-01-03T01:08:27.009Z,153.75
2019-01-03T01:11:30.527Z,162.25
2019-01-03T01:14:19.572Z,163.50
2019-01-03T01:17:09.568Z,162.50
2019-01-03T01:20:06.414Z,164.25
2019-01-03T01:22:55.155Z,165.75
2019-01-03T01:25:43.906Z,168.25
2019-01-03T01:28:34.210Z,161.00
2019-01-03T01:31:26.952Z,166.25
2019-01-03T01:34:35.080Z,149.75
2019-01-03T01:37:24.030Z,165.75
2019-01-03T01:40:08.162Z,174.75
2019-01-03T01:42:57.122Z,168.75
2019-01-03T01:45:45.681Z,174.25
2019-01-03T01:48:39.964Z,171.50
2019-01-03T01:51:30.487Z,176.75
2019-01-03T01:54:22.716Z,171.25
2019-01-03T01:57:21.928Z,178.25
2019-01-03T02:00:18.124Z,176.25
2019-01-03T02:03:07.189Z,176.25
2019-01-03T02:05:54.454Z,188.75
2019-01-03T02:08:50.552Z,189.00
2019-01-03T02:11:43.179Z,189.25
2019-01-03T02:14:31.946Z,197.75
2019-01-03T02:17:24.895Z,189.25
2019-01-03T02:20:13.546Z,197.50
2019-01-03T02:23:02.303Z,210.00
2019-01-03T02:25:55.582Z,201.00
2019-01-03T02:28:55.075Z,207.25
2019-01-03T02:31:43.320Z,218.80
2019-01-03T02:34:36.485Z,230.20
2019-01-03T02:37:35.767Z,242.40
2019-01-03T02:40:25.360Z,234.20
2019-01-03T02:43:14.845Z,236.40
2019-01-03T02:46:10.752Z,218.80
2019-01-03T02:49:09.142Z,225.80
2019-01-03T02:52:02.080Z,218.00
2019-01-03T02:54:52.898Z,217.40
2019-01-03T02:57:46.156Z,217.20
2019-01-03T03:00:35.007Z,203.00
2019-01-03T03:03:23.754Z,208.00
2019-01-03T03:06:19.573Z,199.75
2019-01-03T03:09:07.410Z,204.50
2019-01-03T03:11:57.916Z,197.00
2019-01-03T03:14:48.209Z,219.00
2019-01-03T03:17:41.263Z,208.00
2019-01-03T03:20:28.492Z,209.40
2019-01-03T03:23:30.758Z,218.00
2019-01-03T03:26:21.348Z,217.50
2019-01-03T03:29:09.872Z,207.40
2019-01-03T03:32:01.225Z,193.60
2019-01-03T03:34:57.457Z,199.75
2019-01-03T03:37:50.403Z,206.00
2019-01-03T03:40:38.950Z,193.75
2019-01-03T03:43:32.634Z,188.25
2019-01-03T03:46:23.630Z,185.00
2019-01-03T03:49:32.354Z,178.50
2019-01-03T03:52:21.320Z,184.00
2019-01-03T03:55:23.799Z,181.75
2019-01-03T03:58:12.611Z,169.00
2019-01-03T04:01:15.018Z,166.00
2019-01-03T04:04:14.534Z,168.75
2019-01-03T04:07:18.234Z,169.75
2019-01-03T04:10:08.631Z,164.75
2019-01-03T04:13:07.924Z,162.75
2019-01-03T04:15:58.121Z,159.75
2019-01-03T04:18:48.757Z,158.75
2019-01-03T04:21:41.992Z,165.25
2019-01-03T04:24:30.738Z,158.75
2019-01-03T04:27:32.904Z,168.25
2019-01-03T04:30:35.889Z,157.25
2019-01-03T04:33:21.093Z,159.00
2019-01-03T04:36:19.712Z,163.25
2019-01-03T04:39:10.148Z,171.75
2019-01-03T04:42:13.033Z,171.75
2019-01-03T04:45:15.417Z,159.75
2019-01-03T04:48:04.058Z,151.25
2019-01-03T04:50:52.917Z,153.75
2019-01-03T04:53:41.378Z,151.25
2019-01-03T04:56:43.948Z,162.50
2019-01-03T04:59:34.131Z,161.00
2019-01-03T05:02:24.527Z,158.50
2019-01-03T05:05:17.084Z,159.25
2019-01-03T05:08:07.668Z,143.25
2019-01-03T05:10:54.838Z,142.25
2019-01-03T05:13:43.551Z,141.25
2019-01-03T05:16:32.709Z,144.00
2019-01-03T05:19:21.977Z,151.00
2019-01-03T05:22:27.555Z,143.50
2019-01-03T05:25:16.581Z,126.50
2019-01-03T05:28:18.248Z,138.75
2019-01-03T05:31:08.800Z,146.50
2019-01-03T05:34:05.374Z,145.25
2019-01-03T05:36:58.744Z,138.00
2019-01-03T05:39:57.894Z,141.75
2019-01-03T05:42:48.029Z,133.00
2019-01-03T05:45:50.193Z,139.25
2019-01-03T05:48:39.057Z,134.50
2019-01-03T05:51:27.812Z,133.25
2019-01-03T05:54:18.204Z,132.25
2019-01-03T05:57:07.266Z,137.25
2019-01-03T05:59:53.196Z,139.00
2019-01-03T06:02:45.305Z,147.75
2019-01-03T06:05:34.861Z,145.25
2019-01-03T06:08:23.631Z,143.00
2019-01-03T06:11:19.537Z,152.75
2019-01-03T06:14:08.402Z,144.75
2019-01-03T06:17:10.482Z,153.75
2019-01-03T06:20:00.648Z,151.50
2019-01-03T06:22:44.804Z,138.50
2019-01-03T06:25:45.226Z,153.50
2019-01-03T06:28:34.804Z,146.25
2019-01-03T06:31:43.430Z,156.25
2019-01-03T06:34:29.239Z,163.25
2019-01-03T06:37:18.379Z,149.50
2019-01-03T06:40:09.071Z,163.50
2019-01-03T06:43:02.437Z,155.00
2019-01-03T06:45:52.915Z,164.25
2019-01-03T06:48:38.928Z,163.25
2019-01-03T06:51:39.658Z,154.25
2019-01-03T06:54:32.617Z,162.75
2019-01-03T06:57:22.082Z,162.00
2019-01-03T07:00:18.014Z,154.50
2019-01-03T07:03:08.242Z,152.25
2019-01-03T07:05:57.575Z,152.75
2019-01-03T07:08:57.582Z,151.00
2019-01-03T07:12:07.135Z,157.25
2019-01-03T07:14:56.199Z,150.75
2019-01-03T07:17:52.636Z,138.25
2019-01-03T07:20:44.666Z,144.25
2019-01-03T07:23:50.102Z,138.75
2019-01-03T07:26:51.947Z,151.00
2019-01-03T07:29:41.954Z,139.25
2019-01-03T07:32:30.803Z,152.50
2019-01-03T07:35:19.347Z,148.00
2019-01-03T07:38:12.511Z,146.75
2019-01-03T07:41:02.617Z,144.50
2019-01-03T07:43:53.204Z,148.50
2019-01-03T07:46:42.677Z,151.75
2019-01-03T07:49:48.430Z,148.25
2019-01-03T07:52:36.885Z,146.50
2019-01-03T07:55:25.741Z,151.25
2019-01-03T07:58:14.379Z,154.75
2019-01-03T08:01:19.822Z,140.75
2019-01-03T08:04:11.972Z,146.00
2019-01-03T08:07:02.571Z,142.25
2019-01-03T08:10:11.629Z,147.25
2019-01-03T08:13:02.621Z,147.25
2019-01-03T08:16:00.574Z,144.00
2019-01-03T08:18:53.727Z,140.50
2019-01-03T08:21:49.971Z,147.50
2019-01-03T08:24:42.917Z,145.00
2019-01-03T08:27:31.670Z,143.00
2019-01-03T08:30:33.950Z,143.00
2019-01-03T08:33:22.605Z,144.75
2019-01-03T08:36:11.662Z,145.50
2019-01-03T08:39:04.719Z,140.75
2019-01-03T08:41:52.954Z,145.00
2019-01-03T08:44:52.468Z,136.50
2019-01-03T08:47:54.177Z,144.00
2019-01-03T08:50:40.626Z,148.25
2019-01-03T08:53:29.594Z,144.25
2019-01-03T08:56:29.842Z,129.75
2019-01-03T08:59:29.210Z,131.50
2019-01-03T09:02:37.217Z,124.00
2019-01-03T09:05:26.388Z,123.75
2019-01-03T09:08:13.206Z,125.25
2019-01-03T09:11:09.535Z,129.25
2019-01-03T09:13:58.075Z,125.00
2019-01-03T09:16:40.999Z,133.25
2019-01-03T09:19:30.976Z,124.00
2019-01-03T09:22:19.256Z,129.25
2019-01-03T09:25:20.891Z,124.75
2019-01-03T09:28:17.215Z,123.25
2019-01-03T09:31:07.244Z,119.50
2019-01-03T09:33:52.685Z,128.25
2019-01-03T09:36:41.844Z,114.00
2019-01-03T09:39:39.515Z,95.40
2019-01-03T09:42:28.475Z,96.00
2019-01-03T09:44:59.881Z,88.60
2019-01-03T09:47:32.071Z,89.60
2019-01-03T09:50:03.195Z,88.60
2019-01-03T09:52:34.443Z,91.40
2019-01-03T09:55:05.912Z,98.00
2019-01-03T09:57:37.213Z,101.25
2019-01-03T10:00:10.552Z,105.50
2019-01-03T10:02:41.883Z,122.50
2019-01-03T10:05:13.551Z,119.50
2019-01-03T10:07:44.910Z,120.75
2019-01-03T10:10:16.242Z,118.25
2019-01-03T10:12:47.567Z,120.50
2019-01-03T10:15:18.675Z,119.50
2019-01-03T10:17:50.756Z,118.25
2019-01-03T10:20:22.410Z,113.75
2019-01-03T10:22:54.015Z,108.50
2019-01-03T10:25:25.373Z,106.00
2019-01-03T10:27:56.596Z,95.75
2019-01-03T10:30:28.072Z,97.50
2019-01-03T10:32:59.583Z,93.80
2019-01-03T10:35:31.434Z,101.40
2019-01-03T10:38:02.538Z,106.50
2019-01-03T10:40:33.802Z,103.75
2019-01-03T10:43:05.291Z,112.00
2019-01-03T10:45:36.414Z,119.50
2019-01-03T10:48:08.408Z,121.75
2019-01-03T10:50:39.836Z,124.50
2019-01-03T10:53:11.223Z,118.50
2019-01-03T10:55:42.773Z,126.25
2019-01-03T10:58:14.062Z,118.00
2019-01-03T11:00:45.321Z,126.50
2019-01-03T11:03:16.604Z,129.50
2019-01-03T11:05:47.897Z,121.50
2019-01-03T11:08:19.122Z,125.50
2019-01-03T11:10:50.544Z,124.00
2019-01-03T11:13:21.944Z,125.25
2019-01-03T11:15:53.176Z,118.75
2019-01-03T11:18:25.189Z,113.50
2019-01-03T11:20:56.837Z,114.25
2019-01-03T11:23:28.153Z,115.75
2019-01-03T11:26:05.446Z,106.25
2019-01-03T11:28:36.689Z,115.75
2019-01-03T11:31:12.668Z,122.75
2019-01-03T11:33:52.835Z,123.50
2019-01-03T11:36:24.665Z,116.25
2019-01-03T11:38:59.565Z,122.00
2019-01-03T11:41:32.638Z,107.00
2019-01-03T11:44:05.802Z,116.25
2019-01-03T11:46:38.678Z,120.50
2019-01-03T11:49:11.238Z,113.00
2019-01-03T11:51:47.283Z,117.25
2019-01-03T11:54:18.847Z,121.75
2019-01-03T11:56:57.484Z,118.25
2019-01-03T11:59:29.251Z,119.75
2019-01-03T12:02:00.898Z,110.75
2019-01-03T12:04:32.039Z,128.25
2019-01-03T12:07:03.973Z,121.00
2019-01-03T12:09:35.150Z,121.00
2019-01-03T12:12:06.640Z,109.75
2019-01-03T12:14:38.284Z,123.50
2019-01-03T12:17:09.915Z,119.75
2019-01-03T12:19:42.137Z,116.50
2019-01-03T12:22:13.625Z,124.75
2019-01-03T12:24:45.119Z,115.75
2019-01-03T12:27:16.887Z,124.25
2019-01-03T12:29:48.187Z,117.75
2019-01-03T12:32:20.951Z,134.25
2019-01-03T12:34:52.286Z,118.75
2019-01-03T12:37:23.576Z,124.50
2019-01-03T12:39:54.816Z,129.25
2019-01-03T12:42:26.453Z,135.50
2019-01-03T12:44:57.738Z,129.25
2019-01-03T12:47:30.450Z,135.75
2019-01-03T12:50:02.558Z,134.25
2019-01-03T12:52:34.056Z,131.50
2019-01-03T12:55:05.580Z,125.25
2019-01-03T12:57:37.027Z,135.25
2019-01-03T13:00:12.668Z,140.50
2019-01-03T13:02:45.437Z,133.00
2019-01-03T13:05:16.747Z,137.25
2019-01-03T13:07:48.415Z,138.75
2019-01-03T13:10:21.003Z,136.25
2019-01-03T13:12:53.406Z,135.25
2019-01-03T13:15:25.037Z,132.25
2019-01-03T13:17:56.750Z,145.50
2019-01-03T13:20:28.609Z,131.50
2019-01-03T13:23:00.116Z,134.50
2019-01-03T13:25:31.597Z,135.50
2019-01-03T13:28:02.870Z,123.75
2019-01-03T13:30:34.122Z,137.75
2019-01-03T13:33:05.609Z,140.25
2019-01-03T13:35:36.968Z,138.25
2019-01-03T13:38:08.271Z,138.75
2019-01-03T13:40:39.245Z,148.25
2019-01-03T13:43:11.095Z,147.75
2019-01-03T13:45:42.178Z,142.50
2019-01-03T13:48:13.447Z,154.75
2019-01-03T13:50:44.843Z,173.25
2019-01-03T13:53:16.378Z,179.25
2019-01-03T13:55:47.478Z,182.25
2019-01-03T13:58:18.863Z,186.75
2019-01-03T14:00:50.010Z,181.75
2019-01-03T14:03:21.731Z,185.25
2019-01-03T14:05:52.910Z,203.50
2019-01-03T14:08:24.657Z,198.80
2019-01-03T14:10:55.819Z,188.50
2019-01-03T14:13:27.750Z,195.75
2019-01-03T14:15:58.915Z,199.75
2019-01-03T14:18:30.237Z,190.25
2019-01-03T14:21:02.001Z,191.25
2019-01-03T14:23:33.553Z,195.00
2019-01-03T14:26:04.801Z,200.50
2019-01-03T14:28:36.294Z,193.75
2019-01-03T14:31:07.387Z,189.25
2019-01-03T14:33:38.795Z,200.60
2019-01-03T14:36:09.966Z,190.50
2019-01-03T14:38:41.652Z,203.25
2019-01-03T14:41:13.786Z,201.75
2019-01-03T14:43:45.371Z,204.00
2019-01-03T14:46:16.545Z,196.25
2019-01-03T14:48:48.266Z,198.00
2019-01-03T14:51:20.218Z,193.00
2019-01-03T14:53:51.535Z,185.00
2019-01-03T14:56:22.737Z,188.50
2019-01-03T14:58:54.019Z,187.75
2019-01-03T15:01:25.325Z,172.25
2019-01-03T15:03:57.339Z,167.75
2019-01-03T15:06:28.601Z,151.50
2019-01-03T15:08:59.804Z,156.00
2019-01-03T15:11:30.779Z,149.00
2019-01-03T15:14:02.357Z,155.00
2019-01-03T15:16:33.510Z,152.75
2019-01-03T15:19:04.947Z,144.75
2019-01-03T15:21:36.610Z,141.25
2019-01-03T15:24:07.880Z,139.75
2019-01-03T15:26:39.291Z,141.00
2019-01-03T15:29:10.843Z,133.75
2019-01-03T15:31:42.557Z,139.25
2019-01-03T15:34:14.264Z,133.25
2019-01-03T15:36:45.588Z,139.75
2019-01-03T15:39:17.109Z,136.00
2019-01-03T15:41:48.271Z,131.75
2019-01-03T15:44:19.503Z,136.25
2019-01-03T15:46:50.681Z,131.50
2019-01-03T15:49:22.326Z,134.00
2019-01-03T15:51:54.106Z,149.75
2019-01-03T15:54:25.595Z,139.25
2019-01-03T15:56:56.693Z,145.25
2019-01-03T15:59:29.075Z,148.25
2019-01-03T16:02:00.720Z,145.25
2019-01-03T16:04:32.652Z,140.00
2019-01-03T16:07:03.772Z,147.50
2019-01-03T16:09:35.460Z,143.75
2019-01-03T16:12:07.023Z,151.25
2019-01-03T16:14:38.879Z,138.00
2019-01-03T16:17:10.495Z,142.00
2019-01-03T16:19:41.638Z,144.00
2019-01-03T16:22:13.055Z,142.00
2019-01-03T16:24:44.791Z,130.25
2019-01-03T16:27:15.941Z,141.25
2019-01-03T16:29:47.222Z,136.50
2019-01-03T16:32:18.220Z,126.00
2019-01-03T16:34:49.537Z,133.00
2019-01-03T16:37:20.521Z,130.25
2019-01-03T16:39:52.273Z,130.50
2019-01-03T16:42:25.335Z,135.25
2019-01-03T16:44:56.991Z,124.25
2019-01-03T16:47:28.236Z,133.25
2019-01-03T16:49:59.487Z,139.75
2019-01-03T16:52:31.440Z,139.25
2019-01-03T16:55:02.782Z,129.25
2019-01-03T16:57:34.521Z,122.75
2019-01-03T17:00:06.112Z,132.50
2019-01-03T17:02:38.582Z,120.75
2019-01-03T17:05:10.547Z,137.75
2019-01-03T17:07:41.595Z,139.50
2019-01-03T17:10:18.164Z,147.75
2019-01-03T17:12:49.194Z,137.25
2019-01-03T17:15:20.606Z,145.00
2019-01-03T17:17:52.261Z,134.75
2019-01-03T17:20:23.442Z,141.50
2019-01-03T17:22:55.390Z,140.25
2019-01-03T17:25:26.707Z,138.25
2019-01-03T17:27:58.200Z,128.75
2019-01-03T17:30:29.871Z,132.75
2019-01-03T17:33:01.405Z,139.00
2019-01-03T17:35:32.926Z,126.75
2019-01-03T17:38:04.608Z,134.25
2019-01-03T17:40:36.269Z,130.50
2019-01-03T17:43:07.422Z,126.25
2019-01-03T17:45:39.061Z,126.50
2019-01-03T17:48:11.467Z,135.25
2019-01-03T17:50:43.189Z,134.75
2019-01-03T17:53:14.772Z,135.75
2019-01-03T17:55:46.478Z,133.25
2019-01-03T17:58:18.004Z,133.25
2019-01-03T18:00:49.773Z,128.50
2019-01-03T18:03:21.431Z,133.50
2019-01-03T18:05:52.944Z,126.75
2019-01-03T18:08:24.073Z,124.50
2019-01-03T18:10:55.927Z,131.25
2019-01-03T18:13:27.075Z,132.50
2019-01-03T18:15:58.770Z,124.75
2019-01-03T18:18:30.259Z,130.25
2019-01-03T18:21:02.906Z,122.50
2019-01-03T18:23:34.975Z,129.00
2019-01-03T18:26:06.621Z,124.75
2019-01-03T18:28:37.964Z,121.00
2019-01-03T18:31:09.227Z,120.00
2019-01-03T18:33:40.526Z,126.00
2019-01-03T18:36:12.477Z,128.75
2019-01-03T18:38:44.083Z,116.25
2019-01-03T18:41:15.849Z,129.25
2019-01-03T18:43:46.841Z,123.00
2019-01-03T18:46:18.160Z,129.75
2019-01-03T18:48:50.648Z,128.50
2019-01-03T18:51:22.279Z,126.50
2019-01-03T18:53:54.215Z,132.25
2019-01-03T18:56:25.894Z,135.00
2019-01-03T18:58:57.301Z,131.00
2019-01-03T19:01:29.229Z,132.50
2019-01-03T19:04:00.280Z,129.75
2019-01-03T19:06:31.861Z,119.25
2019-01-03T19:09:03.078Z,122.25
2019-01-03T19:11:35.912Z,130.00
2019-01-03T19:14:07.421Z,129.50
2019-01-03T19:16:39.276Z,124.25
2019-01-03T19:19:10.818Z,135.50
2019-01-03T19:21:42.085Z,130.00
2019-01-03T19:24:13.816Z,123.50
2019-01-03T19:26:45.028Z,117.75
2019-01-03T19:29:16.191Z,122.75
2019-01-03T19:31:47.929Z,138.75
2019-01-03T19:34:19.530Z,115.25
2019-01-03T19:36:51.043Z,120.50
2019-01-03T19:39:22.701Z,117.00
2019-01-03T19:41:54.421Z,107.75
2019-01-03T19:44:25.519Z,117.25
2019-01-03T19:46:56.851Z,117.50
2019-01-03T19:49:28.015Z,122.00
2019-01-03T19:51:59.660Z,117.75
2019-01-03T19:54:32.337Z,109.75
2019-01-03T19:57:03.642Z,118.25
2019-01-03T19:59:35.090Z,120.50
2019-01-03T20:02:07.596Z,111.75
2019-01-03T20:04:39.237Z,103.25
2019-01-03T20:07:10.651Z,108.50
2019-01-03T20:09:42.146Z,114.00
2019-01-03T20:12:13.791Z,114.00
2019-01-03T20:14:45.000Z,111.00
2019-01-03T20:17:16.451Z,109.25
2019-01-03T20:19:47.461Z,110.00
2019-01-03T20:22:19.854Z,112.50
2019-01-03T20:24:51.365Z,108.50
2019-01-03T20:27:23.062Z,119.25
2019-01-03T20:29:54.298Z,117.00
2019-01-03T20:32:25.561Z,114.75
2019-01-03T20:34:56.934Z,110.00
2019-01-03T20:37:28.974Z,114.25
2019-01-03T20:40:00.338Z,108.25
2019-01-03T20:42:31.559Z,112.75
2019-01-03T20:45:02.918Z,112.75
2019-01-03T20:47:34.553Z,106.75
2019-01-03T20:50:05.927Z,102.00
2019-01-03T20:52:37.599Z,116.00
2019-01-03T20:55:10.520Z,116.25
2019-01-03T20:57:41.886Z,109.50
2019-01-03T21:00:14.861Z,110.75
2019-01-03T21:02:46.045Z,102.00
2019-01-03T21:05:17.201Z,109.00
2019-01-03T21:07:48.552Z,111.50
2019-01-03T21:10:19.710Z,105.25
2019-01-03T21:12:51.392Z,110.25
2019-01-03T21:15:22.609Z,103.50
2019-01-03T21:17:54.237Z,108.50
2019-01-03T21:20:25.316Z,110.50
2019-01-03T21:22:56.898Z,107.00
2019-01-03T21:25:28.723Z,107.00
2019-01-03T21:28:00.151Z,103.00
2019-01-03T21:30:32.456Z,103.00
2019-01-03T21:33:04.270Z,103.25
2019-01-03T21:35:35.424Z,106.25
2019-01-03T21:38:07.162Z,98.75
2019-01-03T21:40:38.152Z,108.50
2019-01-03T21:43:09.414Z,100.25
2019-01-03T21:45:40.799Z,108.75
2019-01-03T21:48:12.561Z,107.50
2019-01-03T21:50:43.717Z,112.00
2019-01-03T21:53:15.288Z,102.25
2019-01-03T21:55:46.945Z,112.50
2019-01-03T21:58:18.177Z,112.50
2019-01-03T22:00:49.344Z,104.50
2019-01-03T22:03:21.062Z,113.50
2019-01-03T22:05:52.209Z,102.75
2019-01-03T22:08:24.981Z,98.00
2019-01-03T22:10:57.626Z,105.75
2019-01-03T22:13:29.318Z,90.75
2019-01-03T22:16:01.731Z,102.00
2019-01-03T22:18:33.337Z,97.50
2019-01-03T22:21:04.650Z,103.50
2019-01-03T22:23:37.524Z,92.25
2019-01-03T22:26:09.122Z,98.25
2019-01-03T22:28:40.875Z,96.50
2019-01-03T22:31:12.014Z,95.75
2019-01-03T22:33:44.122Z,97.00
2019-01-03T22:36:15.420Z,108.00
2019-01-03T22:38:47.250Z,100.50
2019-01-03T22:41:18.488Z,98.25
2019-01-03T22:43:50.047Z,99.50
2019-01-03T22:46:21.167Z,99.00
2019-01-03T22:48:52.850Z,88.75
2019-01-03T22:51:24.156Z,101.00
2019-01-03T22:53:55.649Z,91.75
2019-01-03T22:56:27.177Z,98.25
2019-01-03T22:58:58.490Z,99.00
2019-01-03T23:01:29.697Z,95.50
2019-01-03T23:04:00.926Z,98.75
2019-01-03T23:06:32.191Z,100.00
2019-01-03T23:09:04.817Z,94.00
2019-01-03T23:11:36.303Z,92.25
2019-01-03T23:14:07.641Z,94.50
2019-01-03T23:16:38.789Z,94.75
2019-01-03T23:19:10.319Z,102.00
2019-01-03T23:21:41.829Z,94.00
2019-01-03T23:24:13.734Z,93.00
2019-01-03T23:26:46.375Z,98.75
2019-01-03T23:29:18.136Z,89.75
2019-01-03T23:31:49.492Z,98.25
2019-01-03T23:34:21.087Z,88.50
2019-01-03T23:36:52.231Z,93.25
2019-01-03T23:39:23.480Z,101.00
2019-01-03T23:41:54.980Z,98.25
2019-01-03T23:44:26.789Z,94.25
2019-01-03T23:46:58.011Z,87.50
2019-01-03T23:49:30.258Z,92.00
2019-01-03T23:52:01.586Z,99.75
2019-01-03T23:54:33.221Z,87.75
2019-01-03T23:57:04.901Z,90.50
2019-01-03T23:59:36.600Z,89.25
